sensor_id;sensor_type;location;lat;lon;timestamp;temperature;humidity
8008;DHT22;4049;49.468;11.200;2022-09-03T00:02:12;13.10;99.90
8008;DHT22;4049;49.468;11.200;2022-09-03T00:04:48;13.10;99.90
8008;DHT22;4049;49.468;11.200;2022-09-03T00:07:22;13.10;99.90
8008;DHT22;4049;49.468;11.200;2022-09-03T00:09:55;13.00;99.90
8008;DHT22;4049;49.468;11.200;2022-09-03T00:12:27;12.90;99.90
8008;DHT22;4049;49.468;11.200;2022-09-03T00:14:59;12.90;99.90
8008;DHT22;4049;49.468;11.200;2022-09-03T00:17:31;12.80;99.90
8008;DHT22;4049;49.468;11.200;2022-09-03T00:20:05;12.80;99.90
8008;DHT22;4049;49.468;11.200;2022-09-03T00:22:36;12.80;99.90
8008;DHT22;4049;49.468;11.200;2022-09-03T00:25:09;12.70;99.90
8008;DHT22;4049;49.468;11.200;2022-09-03T00:27:39;12.70;99.90
8008;DHT22;4049;49.468;11.200;2022-09-03T00:30:09;12.60;99.90
8008;DHT22;4049;49.468;11.200;2022-09-03T00:32:40;12.60;99.90
8008;DHT22;4049;49.468;11.200;2022-09-03T00:35:13;12.60;99.90
8008;DHT22;4049;49.468;11.200;2022-09-03T00:37:42;12.50;99.90
8008;DHT22;4049;49.468;11.200;2022-09-03T00:40:15;12.50;99.90
8008;DHT22;4049;49.468;11.200;2022-09-03T00:42:51;12.40;99.90
8008;DHT22;4049;49.468;11.200;2022-09-03T00:45:27;12.40;99.90
8008;DHT22;4049;49.468;11.200;2022-09-03T00:48:05;12.30;99.90
8008;DHT22;4049;49.468;11.200;2022-09-03T00:50:45;12.30;99.90
8008;DHT22;4049;49.468;11.200;2022-09-03T00:53:25;12.20;99.90
8008;DHT22;4049;49.468;11.200;2022-09-03T00:55:57;12.20;99.90
8008;DHT22;4049;49.468;11.200;2022-09-03T00:58:53;12.20;99.90
8008;DHT22;4049;49.468;11.200;2022-09-03T01:01:29;12.10;99.90
8008;DHT22;4049;49.468;11.200;2022-09-03T01:04:06;12.00;99.90
8008;DHT22;4049;49.468;11.200;2022-09-03T01:06:40;12.00;99.90
8008;DHT22;4049;49.468;11.200;2022-09-03T01:09:19;11.90;99.90
8008;DHT22;4049;49.468;11.200;2022-09-03T01:11:58;11.90;99.90
8008;DHT22;4049;49.468;11.200;2022-09-03T01:14:37;11.90;99.90
8008;DHT22;4049;49.468;11.200;2022-09-03T01:17:15;11.80;99.90
8008;DHT22;4049;49.468;11.200;2022-09-03T01:20:09;11.80;99.90
8008;DHT22;4049;49.468;11.200;2022-09-03T01:25:48;11.70;99.90
8008;DHT22;4049;49.468;11.200;2022-09-03T01:28:26;11.80;99.90
8008;DHT22;4049;49.468;11.200;2022-09-03T01:31:02;11.70;99.90
8008;DHT22;4049;49.468;11.200;2022-09-03T01:33:39;11.70;99.90
8008;DHT22;4049;49.468;11.200;2022-09-03T01:36:13;11.70;99.90
8008;DHT22;4049;49.468;11.200;2022-09-03T01:38:48;11.70;99.90
8008;DHT22;4049;49.468;11.200;2022-09-03T01:41:25;11.70;99.90
8008;DHT22;4049;49.468;11.200;2022-09-03T01:44:21;11.60;99.90
8008;DHT22;4049;49.468;11.200;2022-09-03T01:46:58;11.60;99.90
8008;DHT22;4049;49.468;11.200;2022-09-03T01:49:36;11.60;99.90
8008;DHT22;4049;49.468;11.200;2022-09-03T01:52:11;11.60;99.90
8008;DHT22;4049;49.468;11.200;2022-09-03T01:54:57;11.50;99.90
8008;DHT22;4049;49.468;11.200;2022-09-03T01:57:41;11.50;99.90
8008;DHT22;4049;49.468;11.200;2022-09-03T02:00:14;11.50;99.90
8008;DHT22;4049;49.468;11.200;2022-09-03T02:02:44;11.50;99.90
8008;DHT22;4049;49.468;11.200;2022-09-03T02:05:15;11.40;99.90
8008;DHT22;4049;49.468;11.200;2022-09-03T02:07:44;11.40;99.90
8008;DHT22;4049;49.468;11.200;2022-09-03T02:10:14;11.40;99.90
8008;DHT22;4049;49.468;11.200;2022-09-03T02:12:46;11.40;99.90
8008;DHT22;4049;49.468;11.200;2022-09-03T02:15:19;11.40;99.90
8008;DHT22;4049;49.468;11.200;2022-09-03T02:17:47;11.30;99.90
8008;DHT22;4049;49.468;11.200;2022-09-03T02:20:19;11.30;99.90
8008;DHT22;4049;49.468;11.200;2022-09-03T02:22:48;11.30;99.90
8008;DHT22;4049;49.468;11.200;2022-09-03T02:25:16;11.20;99.90
8008;DHT22;4049;49.468;11.200;2022-09-03T02:27:43;11.30;99.90
8008;DHT22;4049;49.468;11.200;2022-09-03T02:30:11;11.30;99.90
8008;DHT22;4049;49.468;11.200;2022-09-03T02:32:40;11.20;99.90
8008;DHT22;4049;49.468;11.200;2022-09-03T02:35:08;11.20;99.90
8008;DHT22;4049;49.468;11.200;2022-09-03T02:37:35;11.20;99.90
8008;DHT22;4049;49.468;11.200;2022-09-03T02:40:02;11.20;99.90
8008;DHT22;4049;49.468;11.200;2022-09-03T02:42:31;11.20;99.90
8008;DHT22;4049;49.468;11.200;2022-09-03T02:45:02;11.20;99.90
8008;DHT22;4049;49.468;11.200;2022-09-03T02:47:33;11.20;99.90
8008;DHT22;4049;49.468;11.200;2022-09-03T02:50:04;11.20;99.90
8008;DHT22;4049;49.468;11.200;2022-09-03T02:52:31;11.20;99.90
8008;DHT22;4049;49.468;11.200;2022-09-03T02:54:57;11.20;99.90
8008;DHT22;4049;49.468;11.200;2022-09-03T02:57:24;11.10;99.90
8008;DHT22;4049;49.468;11.200;2022-09-03T02:59:53;11.10;99.90
8008;DHT22;4049;49.468;11.200;2022-09-03T03:02:20;11.10;99.90
8008;DHT22;4049;49.468;11.200;2022-09-03T03:04:47;11.00;99.90
8008;DHT22;4049;49.468;11.200;2022-09-03T03:07:15;11.00;99.90
8008;DHT22;4049;49.468;11.200;2022-09-03T03:09:42;11.00;99.90
8008;DHT22;4049;49.468;11.200;2022-09-03T03:12:09;11.00;99.90
8008;DHT22;4049;49.468;11.200;2022-09-03T03:14:36;11.00;99.90
8008;DHT22;4049;49.468;11.200;2022-09-03T03:17:03;10.90;99.90
8008;DHT22;4049;49.468;11.200;2022-09-03T03:19:30;10.80;99.90
8008;DHT22;4049;49.468;11.200;2022-09-03T03:21:57;10.80;99.90
8008;DHT22;4049;49.468;11.200;2022-09-03T03:24:25;10.70;99.90
8008;DHT22;4049;49.468;11.200;2022-09-03T03:26:54;10.60;99.90
8008;DHT22;4049;49.468;11.200;2022-09-03T03:29:22;10.50;99.90
8008;DHT22;4049;49.468;11.200;2022-09-03T03:31:50;10.50;99.90
8008;DHT22;4049;49.468;11.200;2022-09-03T03:34:17;10.40;99.90
8008;DHT22;4049;49.468;11.200;2022-09-03T03:36:44;10.50;99.90
8008;DHT22;4049;49.468;11.200;2022-09-03T03:39:11;10.40;99.90
8008;DHT22;4049;49.468;11.200;2022-09-03T03:41:39;10.40;99.90
8008;DHT22;4049;49.468;11.200;2022-09-03T03:44:07;10.40;99.90
8008;DHT22;4049;49.468;11.200;2022-09-03T03:46:36;10.40;99.90
8008;DHT22;4049;49.468;11.200;2022-09-03T03:49:04;10.40;99.90
8008;DHT22;4049;49.468;11.200;2022-09-03T03:51:32;10.30;99.90
8008;DHT22;4049;49.468;11.200;2022-09-03T03:53:59;10.30;99.90
8008;DHT22;4049;49.468;11.200;2022-09-03T03:56:26;10.30;99.90
8008;DHT22;4049;49.468;11.200;2022-09-03T03:58:55;10.30;99.90
8008;DHT22;4049;49.468;11.200;2022-09-03T04:01:24;10.30;99.90
8008;DHT22;4049;49.468;11.200;2022-09-03T04:03:53;10.20;99.90
8008;DHT22;4049;49.468;11.200;2022-09-03T04:06:20;10.20;99.90
8008;DHT22;4049;49.468;11.200;2022-09-03T04:08:48;10.20;99.90
8008;DHT22;4049;49.468;11.200;2022-09-03T04:11:17;10.20;99.90
8008;DHT22;4049;49.468;11.200;2022-09-03T04:13:45;10.10;99.90
8008;DHT22;4049;49.468;11.200;2022-09-03T04:16:16;10.10;99.90
8008;DHT22;4049;49.468;11.200;2022-09-03T04:18:44;10.00;99.90
8008;DHT22;4049;49.468;11.200;2022-09-03T04:21:12;10.10;99.90
8008;DHT22;4049;49.468;11.200;2022-09-03T04:23:42;10.10;99.90
8008;DHT22;4049;49.468;11.200;2022-09-03T04:26:12;10.10;99.90
8008;DHT22;4049;49.468;11.200;2022-09-03T04:28:40;10.00;99.90
8008;DHT22;4049;49.468;11.200;2022-09-03T04:31:08;10.00;99.90
8008;DHT22;4049;49.468;11.200;2022-09-03T04:33:37;10.10;99.90
8008;DHT22;4049;49.468;11.200;2022-09-03T04:36:06;10.10;99.90
8008;DHT22;4049;49.468;11.200;2022-09-03T04:38:34;10.10;99.90
8008;DHT22;4049;49.468;11.200;2022-09-03T04:41:02;10.10;99.90
8008;DHT22;4049;49.468;11.200;2022-09-03T04:43:29;10.10;99.90
8008;DHT22;4049;49.468;11.200;2022-09-03T04:45:57;10.10;99.90
8008;DHT22;4049;49.468;11.200;2022-09-03T04:48:25;10.10;99.90
8008;DHT22;4049;49.468;11.200;2022-09-03T04:50:53;10.10;99.90
8008;DHT22;4049;49.468;11.200;2022-09-03T04:53:21;10.10;99.90
8008;DHT22;4049;49.468;11.200;2022-09-03T04:55:48;10.10;99.90
8008;DHT22;4049;49.468;11.200;2022-09-03T04:58:15;10.10;99.90
8008;DHT22;4049;49.468;11.200;2022-09-03T05:00:42;10.20;99.90
8008;DHT22;4049;49.468;11.200;2022-09-03T05:03:09;10.20;99.90
8008;DHT22;4049;49.468;11.200;2022-09-03T05:05:37;10.30;99.90
8008;DHT22;4049;49.468;11.200;2022-09-03T05:08:05;10.30;99.90
8008;DHT22;4049;49.468;11.200;2022-09-03T05:10:33;10.40;99.90
8008;DHT22;4049;49.468;11.200;2022-09-03T05:13:00;10.50;99.90
8008;DHT22;4049;49.468;11.200;2022-09-03T05:15:28;10.50;99.90
8008;DHT22;4049;49.468;11.200;2022-09-03T05:17:56;10.60;99.90
8008;DHT22;4049;49.468;11.200;2022-09-03T05:20:24;10.70;99.90
8008;DHT22;4049;49.468;11.200;2022-09-03T05:22:51;10.80;99.90
8008;DHT22;4049;49.468;11.200;2022-09-03T05:25:19;10.80;99.90
8008;DHT22;4049;49.468;11.200;2022-09-03T05:27:47;10.90;99.90
8008;DHT22;4049;49.468;11.200;2022-09-03T05:30:14;11.00;99.90
8008;DHT22;4049;49.468;11.200;2022-09-03T05:32:41;11.00;99.90
8008;DHT22;4049;49.468;11.200;2022-09-03T05:35:09;11.10;99.90
8008;DHT22;4049;49.468;11.200;2022-09-03T05:37:36;11.10;99.90
8008;DHT22;4049;49.468;11.200;2022-09-03T05:40:04;11.20;99.90
8008;DHT22;4049;49.468;11.200;2022-09-03T05:42:33;11.20;99.90
8008;DHT22;4049;49.468;11.200;2022-09-03T05:45:04;11.30;99.90
8008;DHT22;4049;49.468;11.200;2022-09-03T05:47:31;11.30;99.90
8008;DHT22;4049;49.468;11.200;2022-09-03T05:49:58;11.40;99.90
8008;DHT22;4049;49.468;11.200;2022-09-03T05:52:25;11.40;99.90
8008;DHT22;4049;49.468;11.200;2022-09-03T05:54:52;11.50;99.90
8008;DHT22;4049;49.468;11.200;2022-09-03T05:57:19;11.50;99.90
8008;DHT22;4049;49.468;11.200;2022-09-03T05:59:48;11.60;99.90
8008;DHT22;4049;49.468;11.200;2022-09-03T06:02:14;11.70;99.90
8008;DHT22;4049;49.468;11.200;2022-09-03T06:04:42;11.70;99.90
8008;DHT22;4049;49.468;11.200;2022-09-03T06:07:09;11.70;99.90
8008;DHT22;4049;49.468;11.200;2022-09-03T06:09:36;11.80;99.90
8008;DHT22;4049;49.468;11.200;2022-09-03T06:12:03;11.80;99.90
8008;DHT22;4049;49.468;11.200;2022-09-03T06:14:30;11.90;99.90
8008;DHT22;4049;49.468;11.200;2022-09-03T06:16:58;11.90;99.90
8008;DHT22;4049;49.468;11.200;2022-09-03T06:19:25;12.00;99.90
8008;DHT22;4049;49.468;11.200;2022-09-03T06:21:52;12.10;99.90
8008;DHT22;4049;49.468;11.200;2022-09-03T06:24:20;12.20;99.90
8008;DHT22;4049;49.468;11.200;2022-09-03T06:26:48;12.30;99.90
8008;DHT22;4049;49.468;11.200;2022-09-03T06:29:15;12.30;99.90
8008;DHT22;4049;49.468;11.200;2022-09-03T06:31:43;12.40;99.90
8008;DHT22;4049;49.468;11.200;2022-09-03T06:34:12;12.50;99.90
8008;DHT22;4049;49.468;11.200;2022-09-03T06:36:38;12.50;99.90
8008;DHT22;4049;49.468;11.200;2022-09-03T06:39:06;12.60;99.90
8008;DHT22;4049;49.468;11.200;2022-09-03T06:41:33;12.70;99.90
8008;DHT22;4049;49.468;11.200;2022-09-03T06:44:02;12.80;99.90
8008;DHT22;4049;49.468;11.200;2022-09-03T06:46:30;12.90;99.90
8008;DHT22;4049;49.468;11.200;2022-09-03T06:48:57;13.00;99.90
8008;DHT22;4049;49.468;11.200;2022-09-03T06:51:27;13.00;99.90
8008;DHT22;4049;49.468;11.200;2022-09-03T06:54:00;13.10;99.90
8008;DHT22;4049;49.468;11.200;2022-09-03T06:56:27;13.20;99.90
8008;DHT22;4049;49.468;11.200;2022-09-03T06:58:56;13.30;99.90
8008;DHT22;4049;49.468;11.200;2022-09-03T07:01:25;13.40;99.90
8008;DHT22;4049;49.468;11.200;2022-09-03T07:03:54;13.60;99.90
8008;DHT22;4049;49.468;11.200;2022-09-03T07:06:22;13.70;99.90
8008;DHT22;4049;49.468;11.200;2022-09-03T07:08:52;13.80;99.90
8008;DHT22;4049;49.468;11.200;2022-09-03T07:11:21;13.90;99.90
8008;DHT22;4049;49.468;11.200;2022-09-03T07:13:51;14.00;99.90
8008;DHT22;4049;49.468;11.200;2022-09-03T07:16:19;14.00;99.90
8008;DHT22;4049;49.468;11.200;2022-09-03T07:18:47;14.10;99.90
8008;DHT22;4049;49.468;11.200;2022-09-03T07:21:17;14.20;99.90
8008;DHT22;4049;49.468;11.200;2022-09-03T07:23:45;14.20;99.90
8008;DHT22;4049;49.468;11.200;2022-09-03T07:26:15;14.30;99.90
8008;DHT22;4049;49.468;11.200;2022-09-03T07:28:43;14.40;99.90
8008;DHT22;4049;49.468;11.200;2022-09-03T07:31:13;14.50;99.90
8008;DHT22;4049;49.468;11.200;2022-09-03T07:33:41;14.60;99.90
8008;DHT22;4049;49.468;11.200;2022-09-03T07:36:09;14.70;99.90
8008;DHT22;4049;49.468;11.200;2022-09-03T07:38:37;14.80;99.90
8008;DHT22;4049;49.468;11.200;2022-09-03T07:41:06;14.90;99.90
8008;DHT22;4049;49.468;11.200;2022-09-03T07:43:36;15.00;99.90
8008;DHT22;4049;49.468;11.200;2022-09-03T07:46:04;15.10;99.90
8008;DHT22;4049;49.468;11.200;2022-09-03T07:48:32;15.30;99.90
8008;DHT22;4049;49.468;11.200;2022-09-03T07:50:59;15.30;99.90
8008;DHT22;4049;49.468;11.200;2022-09-03T07:53:27;15.40;99.90
8008;DHT22;4049;49.468;11.200;2022-09-03T07:56:00;15.60;99.90
8008;DHT22;4049;49.468;11.200;2022-09-03T07:58:28;15.80;99.90
8008;DHT22;4049;49.468;11.200;2022-09-03T08:00:56;15.90;99.90
8008;DHT22;4049;49.468;11.200;2022-09-03T08:03:23;16.10;99.90
8008;DHT22;4049;49.468;11.200;2022-09-03T08:05:50;16.20;99.90
8008;DHT22;4049;49.468;11.200;2022-09-03T08:08:17;16.40;99.90
8008;DHT22;4049;49.468;11.200;2022-09-03T08:10:44;16.60;99.90
8008;DHT22;4049;49.468;11.200;2022-09-03T08:13:12;16.70;99.90
8008;DHT22;4049;49.468;11.200;2022-09-03T08:15:39;16.80;99.90
8008;DHT22;4049;49.468;11.200;2022-09-03T08:18:08;16.90;99.90
8008;DHT22;4049;49.468;11.200;2022-09-03T08:20:36;17.00;99.90
8008;DHT22;4049;49.468;11.200;2022-09-03T08:23:04;17.00;99.90
8008;DHT22;4049;49.468;11.200;2022-09-03T08:25:31;17.10;99.90
8008;DHT22;4049;49.468;11.200;2022-09-03T08:27:58;17.20;99.90
8008;DHT22;4049;49.468;11.200;2022-09-03T08:30:27;17.30;99.90
8008;DHT22;4049;49.468;11.200;2022-09-03T08:32:54;17.40;99.90
8008;DHT22;4049;49.468;11.200;2022-09-03T08:35:23;17.50;99.90
8008;DHT22;4049;49.468;11.200;2022-09-03T08:37:49;17.60;99.90
8008;DHT22;4049;49.468;11.200;2022-09-03T08:40:19;17.70;99.90
8008;DHT22;4049;49.468;11.200;2022-09-03T08:42:59;17.70;99.90
8008;DHT22;4049;49.468;11.200;2022-09-03T08:45:31;17.80;99.90
8008;DHT22;4049;49.468;11.200;2022-09-03T08:48:04;17.80;99.90
8008;DHT22;4049;49.468;11.200;2022-09-03T08:50:37;17.90;99.90
8008;DHT22;4049;49.468;11.200;2022-09-03T08:53:11;17.90;99.90
8008;DHT22;4049;49.468;11.200;2022-09-03T08:55:43;17.90;99.90
8008;DHT22;4049;49.468;11.200;2022-09-03T08:58:15;17.90;99.90
8008;DHT22;4049;49.468;11.200;2022-09-03T09:00:48;18.00;99.90
8008;DHT22;4049;49.468;11.200;2022-09-03T09:03:38;18.00;99.90
8008;DHT22;4049;49.468;11.200;2022-09-03T09:06:17;18.10;99.90
8008;DHT22;4049;49.468;11.200;2022-09-03T09:08:58;18.20;99.90
8008;DHT22;4049;49.468;11.200;2022-09-03T09:11:39;18.30;99.90
8008;DHT22;4049;49.468;11.200;2022-09-03T09:14:18;18.40;99.90
8008;DHT22;4049;49.468;11.200;2022-09-03T09:16:52;18.50;99.90
8008;DHT22;4049;49.468;11.200;2022-09-03T09:19:36;18.50;99.90
8008;DHT22;4049;49.468;11.200;2022-09-03T09:22:09;18.60;99.90
8008;DHT22;4049;49.468;11.200;2022-09-03T09:24:40;18.60;99.90
8008;DHT22;4049;49.468;11.200;2022-09-03T09:27:07;18.70;99.90
8008;DHT22;4049;49.468;11.200;2022-09-03T09:29:36;18.80;99.90
8008;DHT22;4049;49.468;11.200;2022-09-03T09:32:06;18.90;99.90
8008;DHT22;4049;49.468;11.200;2022-09-03T09:34:34;19.10;99.90
8008;DHT22;4049;49.468;11.200;2022-09-03T09:37:03;19.20;99.90
8008;DHT22;4049;49.468;11.200;2022-09-03T09:39:33;19.30;99.90
8008;DHT22;4049;49.468;11.200;2022-09-03T09:42:01;19.40;99.90
8008;DHT22;4049;49.468;11.200;2022-09-03T09:44:34;19.50;99.90
8008;DHT22;4049;49.468;11.200;2022-09-03T09:47:04;19.50;99.90
8008;DHT22;4049;49.468;11.200;2022-09-03T09:49:33;19.60;99.90
8008;DHT22;4049;49.468;11.200;2022-09-03T09:52:03;19.60;99.90
8008;DHT22;4049;49.468;11.200;2022-09-03T09:54:30;19.80;99.90
8008;DHT22;4049;49.468;11.200;2022-09-03T09:57:00;19.90;99.90
8008;DHT22;4049;49.468;11.200;2022-09-03T09:59:28;20.10;99.90
8008;DHT22;4049;49.468;11.200;2022-09-03T10:02:07;20.20;99.90
8008;DHT22;4049;49.468;11.200;2022-09-03T10:04:35;20.40;99.90
8008;DHT22;4049;49.468;11.200;2022-09-03T10:07:04;20.60;99.90
8008;DHT22;4049;49.468;11.200;2022-09-03T10:09:33;20.80;98.20
8008;DHT22;4049;49.468;11.200;2022-09-03T10:12:15;20.90;99.70
8008;DHT22;4049;49.468;11.200;2022-09-03T10:14:48;21.00;95.00
8008;DHT22;4049;49.468;11.200;2022-09-03T10:17:21;21.00;91.40
8008;DHT22;4049;49.468;11.200;2022-09-03T10:19:56;21.00;91.40
8008;DHT22;4049;49.468;11.200;2022-09-03T10:22:40;20.90;94.60
8008;DHT22;4049;49.468;11.200;2022-09-03T10:25:12;20.90;92.80
8008;DHT22;4049;49.468;11.200;2022-09-03T10:27:42;21.00;94.00
8008;DHT22;4049;49.468;11.200;2022-09-03T10:30:11;21.10;93.60
8008;DHT22;4049;49.468;11.200;2022-09-03T10:32:45;21.10;94.30
8008;DHT22;4049;49.468;11.200;2022-09-03T10:35:20;21.20;94.10
8008;DHT22;4049;49.468;11.200;2022-09-03T10:37:54;21.20;93.80
8008;DHT22;4049;49.468;11.200;2022-09-03T10:40:29;21.30;92.00
8008;DHT22;4049;49.468;11.200;2022-09-03T10:43:25;21.50;93.20
8008;DHT22;4049;49.468;11.200;2022-09-03T10:46:02;21.70;92.70
8008;DHT22;4049;49.468;11.200;2022-09-03T10:48:50;21.80;92.00
8008;DHT22;4049;49.468;11.200;2022-09-03T10:51:23;22.10;91.70
8008;DHT22;4049;49.468;11.200;2022-09-03T10:54:08;22.50;92.30
8008;DHT22;4049;49.468;11.200;2022-09-03T10:56:42;22.90;87.80
8008;DHT22;4049;49.468;11.200;2022-09-03T10:59:27;23.20;88.80
8008;DHT22;4049;49.468;11.200;2022-09-03T11:02:05;23.60;87.30
8008;DHT22;4049;49.468;11.200;2022-09-03T11:04:45;23.90;83.00
8008;DHT22;4049;49.468;11.200;2022-09-03T11:07:20;23.90;77.60
8008;DHT22;4049;49.468;11.200;2022-09-03T11:09:53;23.90;78.70
8008;DHT22;4049;49.468;11.200;2022-09-03T11:12:27;24.10;77.10
8008;DHT22;4049;49.468;11.200;2022-09-03T11:15:00;24.40;76.50
8008;DHT22;4049;49.468;11.200;2022-09-03T11:17:35;24.50;73.60
8008;DHT22;4049;49.468;11.200;2022-09-03T11:20:11;24.60;76.20
8008;DHT22;4049;49.468;11.200;2022-09-03T11:22:42;24.50;69.50
8008;DHT22;4049;49.468;11.200;2022-09-03T11:25:13;24.50;67.20
8008;DHT22;4049;49.468;11.200;2022-09-03T11:27:51;24.40;65.50
8008;DHT22;4049;49.468;11.200;2022-09-03T11:30:39;24.30;69.60
8008;DHT22;4049;49.468;11.200;2022-09-03T11:33:18;24.30;71.80
8008;DHT22;4049;49.468;11.200;2022-09-03T11:35:45;24.40;70.90
8008;DHT22;4049;49.468;11.200;2022-09-03T11:38:19;24.50;70.30
8008;DHT22;4049;49.468;11.200;2022-09-03T11:40:59;24.70;68.70
8008;DHT22;4049;49.468;11.200;2022-09-03T11:43:29;24.70;69.40
8008;DHT22;4049;49.468;11.200;2022-09-03T11:46:04;24.80;69.00
8008;DHT22;4049;49.468;11.200;2022-09-03T11:48:36;24.90;71.40
8008;DHT22;4049;49.468;11.200;2022-09-03T11:51:03;25.10;71.10
8008;DHT22;4049;49.468;11.200;2022-09-03T11:53:34;25.10;66.30
8008;DHT22;4049;49.468;11.200;2022-09-03T11:56:16;25.10;68.10
8008;DHT22;4049;49.468;11.200;2022-09-03T11:58:43;25.30;66.50
8008;DHT22;4049;49.468;11.200;2022-09-03T12:01:13;25.30;64.60
8008;DHT22;4049;49.468;11.200;2022-09-03T12:03:44;25.20;63.50
8008;DHT22;4049;49.468;11.200;2022-09-03T12:06:28;25.20;66.70
8008;DHT22;4049;49.468;11.200;2022-09-03T12:09:19;25.30;67.80
8008;DHT22;4049;49.468;11.200;2022-09-03T12:12:00;25.50;65.90
8008;DHT22;4049;49.468;11.200;2022-09-03T12:14:35;25.70;65.80
8008;DHT22;4049;49.468;11.200;2022-09-03T12:17:14;26.10;65.80
8008;DHT22;4049;49.468;11.200;2022-09-03T12:19:49;26.20;62.90
8008;DHT22;4049;49.468;11.200;2022-09-03T12:22:19;26.40;59.80
8008;DHT22;4049;49.468;11.200;2022-09-03T12:24:46;26.40;60.20
8008;DHT22;4049;49.468;11.200;2022-09-03T12:27:17;26.60;59.70
8008;DHT22;4049;49.468;11.200;2022-09-03T12:29:54;26.70;58.80
8008;DHT22;4049;49.468;11.200;2022-09-03T12:32:24;26.60;60.50
8008;DHT22;4049;49.468;11.200;2022-09-03T12:34:52;26.60;58.70
8008;DHT22;4049;49.468;11.200;2022-09-03T12:37:20;26.60;59.80
8008;DHT22;4049;49.468;11.200;2022-09-03T12:39:52;26.60;59.20
8008;DHT22;4049;49.468;11.200;2022-09-03T12:42:23;26.40;58.90
8008;DHT22;4049;49.468;11.200;2022-09-03T12:44:52;26.30;59.00
8008;DHT22;4049;49.468;11.200;2022-09-03T12:47:20;26.00;60.00
8008;DHT22;4049;49.468;11.200;2022-09-03T12:49:51;26.10;59.70
8008;DHT22;4049;49.468;11.200;2022-09-03T12:52:20;26.30;60.00
8008;DHT22;4049;49.468;11.200;2022-09-03T12:54:54;26.40;61.30
8008;DHT22;4049;49.468;11.200;2022-09-03T12:57:25;26.30;59.20
8008;DHT22;4049;49.468;11.200;2022-09-03T12:59:55;26.50;62.10
8008;DHT22;4049;49.468;11.200;2022-09-03T13:02:26;26.60;59.10
8008;DHT22;4049;49.468;11.200;2022-09-03T13:04:56;26.30;58.80
8008;DHT22;4049;49.468;11.200;2022-09-03T13:07:27;26.40;58.70
8008;DHT22;4049;49.468;11.200;2022-09-03T13:10:00;25.90;59.60
8008;DHT22;4049;49.468;11.200;2022-09-03T13:12:32;25.80;59.60
8008;DHT22;4049;49.468;11.200;2022-09-03T13:15:06;25.70;61.40
8008;DHT22;4049;49.468;11.200;2022-09-03T13:18:14;25.60;60.40
8008;DHT22;4049;49.468;11.200;2022-09-03T13:20:59;25.50;61.20
8008;DHT22;4049;49.468;11.200;2022-09-03T13:23:47;25.50;63.40
8008;DHT22;4049;49.468;11.200;2022-09-03T13:26:24;25.30;62.20
8008;DHT22;4049;49.468;11.200;2022-09-03T13:29:10;24.90;62.00
8008;DHT22;4049;49.468;11.200;2022-09-03T13:31:44;24.80;64.80
8008;DHT22;4049;49.468;11.200;2022-09-03T13:34:19;24.60;64.30
8008;DHT22;4049;49.468;11.200;2022-09-03T13:36:54;24.50;67.10
8008;DHT22;4049;49.468;11.200;2022-09-03T13:39:27;24.30;64.70
8008;DHT22;4049;49.468;11.200;2022-09-03T13:42:02;24.20;66.20
8008;DHT22;4049;49.468;11.200;2022-09-03T13:44:39;24.00;66.10
8008;DHT22;4049;49.468;11.200;2022-09-03T13:47:10;24.20;65.50
8008;DHT22;4049;49.468;11.200;2022-09-03T13:49:42;24.10;67.90
8008;DHT22;4049;49.468;11.200;2022-09-03T13:52:33;24.00;68.70
8008;DHT22;4049;49.468;11.200;2022-09-03T13:55:10;24.00;68.80
8008;DHT22;4049;49.468;11.200;2022-09-03T13:57:45;24.00;69.00
8008;DHT22;4049;49.468;11.200;2022-09-03T14:00:23;24.00;69.20
8008;DHT22;4049;49.468;11.200;2022-09-03T14:02:53;24.00;68.30
8008;DHT22;4049;49.468;11.200;2022-09-03T14:05:37;23.80;68.40
8008;DHT22;4049;49.468;11.200;2022-09-03T14:08:14;23.90;68.70
8008;DHT22;4049;49.468;11.200;2022-09-03T14:10:54;24.00;69.80
8008;DHT22;4049;49.468;11.200;2022-09-03T14:13:30;24.00;68.10
8008;DHT22;4049;49.468;11.200;2022-09-03T14:16:06;24.00;70.10
8008;DHT22;4049;49.468;11.200;2022-09-03T14:18:40;23.90;69.80
8008;DHT22;4049;49.468;11.200;2022-09-03T14:21:13;23.90;70.70
8008;DHT22;4049;49.468;11.200;2022-09-03T14:23:46;23.90;70.50
8008;DHT22;4049;49.468;11.200;2022-09-03T14:26:17;23.80;73.50
8008;DHT22;4049;49.468;11.200;2022-09-03T14:28:47;23.70;74.90
8008;DHT22;4049;49.468;11.200;2022-09-03T14:31:22;23.60;74.50
8008;DHT22;4049;49.468;11.200;2022-09-03T14:33:58;23.40;74.90
8008;DHT22;4049;49.468;11.200;2022-09-03T14:36:36;23.30;75.30
8008;DHT22;4049;49.468;11.200;2022-09-03T14:39:21;23.20;77.20
8008;DHT22;4049;49.468;11.200;2022-09-03T14:45:00;23.10;79.60
8008;DHT22;4049;49.468;11.200;2022-09-03T14:47:50;23.00;80.50
8008;DHT22;4049;49.468;11.200;2022-09-03T14:50:49;22.90;82.30
8008;DHT22;4049;49.468;11.200;2022-09-03T14:53:30;22.80;84.20
8008;DHT22;4049;49.468;11.200;2022-09-03T14:56:31;22.90;86.70
8008;DHT22;4049;49.468;11.200;2022-09-03T14:59:29;22.90;90.80
8008;DHT22;4049;49.468;11.200;2022-09-03T15:02:29;22.80;90.70
8008;DHT22;4049;49.468;11.200;2022-09-03T15:05:08;22.80;91.40
8008;DHT22;4049;49.468;11.200;2022-09-03T15:07:41;22.80;92.70
8008;DHT22;4049;49.468;11.200;2022-09-03T15:10:20;22.80;93.30
8008;DHT22;4049;49.468;11.200;2022-09-03T15:12:55;22.70;93.90
8008;DHT22;4049;49.468;11.200;2022-09-03T15:15:31;22.70;94.00
8008;DHT22;4049;49.468;11.200;2022-09-03T15:18:14;22.70;96.30
8008;DHT22;4049;49.468;11.200;2022-09-03T15:20:48;22.70;96.90
8008;DHT22;4049;49.468;11.200;2022-09-03T15:23:23;22.70;97.20
8008;DHT22;4049;49.468;11.200;2022-09-03T15:32:00;22.70;99.90
8008;DHT22;4049;49.468;11.200;2022-09-03T15:37:27;22.60;99.90
8008;DHT22;4049;49.468;11.200;2022-09-03T15:40:02;22.50;99.90
8008;DHT22;4049;49.468;11.200;2022-09-03T15:42:31;22.40;99.90
8008;DHT22;4049;49.468;11.200;2022-09-03T15:45:04;22.40;99.90
8008;DHT22;4049;49.468;11.200;2022-09-03T15:47:39;22.30;99.90
8008;DHT22;4049;49.468;11.200;2022-09-03T15:50:15;22.20;99.90
8008;DHT22;4049;49.468;11.200;2022-09-03T15:52:53;22.20;99.90
8008;DHT22;4049;49.468;11.200;2022-09-03T15:55:30;22.10;99.90
8008;DHT22;4049;49.468;11.200;2022-09-03T15:58:05;22.10;99.90
8008;DHT22;4049;49.468;11.200;2022-09-03T16:00:49;22.00;99.90
8008;DHT22;4049;49.468;11.200;2022-09-03T16:03:21;21.90;99.90
8008;DHT22;4049;49.468;11.200;2022-09-03T16:05:54;21.80;99.90
8008;DHT22;4049;49.468;11.200;2022-09-03T16:08:31;21.80;99.90
8008;DHT22;4049;49.468;11.200;2022-09-03T16:11:05;21.80;99.90
8008;DHT22;4049;49.468;11.200;2022-09-03T16:13:57;21.70;99.90
8008;DHT22;4049;49.468;11.200;2022-09-03T16:16:43;21.70;99.90
8008;DHT22;4049;49.468;11.200;2022-09-03T16:19:21;21.60;99.90
8008;DHT22;4049;49.468;11.200;2022-09-03T16:21:56;21.50;99.90
8008;DHT22;4049;49.468;11.200;2022-09-03T16:24:27;21.40;99.90
8008;DHT22;4049;49.468;11.200;2022-09-03T16:27:01;21.40;99.90
8008;DHT22;4049;49.468;11.200;2022-09-03T16:29:30;21.30;99.90
8008;DHT22;4049;49.468;11.200;2022-09-03T16:32:15;21.30;99.90
8008;DHT22;4049;49.468;11.200;2022-09-03T16:34:52;21.20;99.90